Time;durP1;ratioP1;P1;durP2;ratioP2;P2;SDS_P1;SDS_P2;PMS_P1;PMS_P2;Temp;Humidity;BMP_temperature;BMP_pressure;BME280_temperature;BME280_humidity;BME280_pressure;Samples;Min_cycle;Max_cycle;Signal;HPM_P1;HPM_P2
2022/12/21 00:01:10;;;;;;;26.17;17.13;;;8.00;83.10;;;;;;6338389;22;20009;-89
2022/12/21 00:03:36;;;;;;;27.88;18.15;;;8.10;83.20;;;;;;6338708;22;20417;-90
2022/12/21 00:06:04;;;;;;;26.75;16.75;;;8.00;83.20;;;;;;6338899;22;20047;-92
2022/12/21 00:08:41;;;;;;;26.45;17.17;;;8.00;83.10;;;;;;6339299;22;20075;-94
2022/12/21 00:11:08;;;;;;;28.45;18.70;;;8.00;83.20;;;;;;6338757;22;20420;-94
2022/12/21 00:13:33;;;;;;;26.50;17.40;;;8.00;83.40;;;;;;6311333;22;20014;-94
2022/12/21 00:16:07;;;;;;;28.70;17.58;;;8.00;84.00;;;;;;6339241;22;20003;-94
2022/12/21 00:18:34;;;;;;;28.58;19.30;;;7.90;83.60;;;;;;6311216;22;20030;-94
2022/12/21 00:21:06;;;;;;;28.52;18.13;;;8.00;83.60;;;;;;6338793;22;20018;-95
2022/12/21 00:23:32;;;;;;;27.85;18.52;;;8.00;83.50;;;;;;6339062;22;20509;-93
2022/12/21 00:25:59;;;;;;;25.45;17.40;;;8.00;84.00;;;;;;6338170;22;20003;-93
2022/12/21 00:28:25;;;;;;;29.73;17.05;;;8.00;83.60;;;;;;6338758;22;19999;-95
2022/12/21 00:30:51;;;;;;;27.83;18.20;;;8.00;83.70;;;;;;6338960;22;20010;-94
2022/12/21 00:33:17;;;;;;;26.65;17.45;;;8.00;83.70;;;;;;6338449;22;20444;-89
2022/12/21 00:35:50;;;;;;;22.52;16.27;;;8.00;83.80;;;;;;6337990;22;20009;-88
2022/12/21 00:38:16;;;;;;;22.08;15.93;;;8.00;83.80;;;;;;6338372;22;20413;-87
2022/12/21 00:40:43;;;;;;;26.65;16.80;;;7.90;83.70;;;;;;6338726;22;20321;-90
2022/12/21 00:43:09;;;;;;;27.77;17.65;;;7.90;83.80;;;;;;6338708;22;20360;-90
2022/12/21 00:45:35;;;;;;;25.23;16.38;;;7.90;83.90;;;;;;6339244;22;20026;-92
2022/12/21 00:48:01;;;;;;;25.02;17.55;;;7.90;83.80;;;;;;6340568;22;20002;-91
2022/12/21 00:50:27;;;;;;;26.98;18.92;;;7.90;84.00;;;;;;6340574;22;20442;-92
2022/12/21 00:52:52;;;;;;;25.25;17.98;;;7.90;84.50;;;;;;6313867;22;20003;-92
2022/12/21 00:55:18;;;;;;;24.85;16.55;;;7.90;84.00;;;;;;6313945;22;20448;-93
2022/12/21 00:57:44;;;;;;;28.58;18.75;;;7.80;84.20;;;;;;6336823;22;20007;-91
2022/12/21 01:00:10;;;;;;;26.98;17.05;;;7.80;84.30;;;;;;6312446;22;20006;-89
2022/12/21 01:02:36;;;;;;;29.85;18.27;;;7.90;84.20;;;;;;6340868;22;19995;-93
2022/12/21 01:05:02;;;;;;;28.38;18.70;;;7.90;84.30;;;;;;6340739;22;20002;-94
2022/12/21 01:07:28;;;;;;;31.25;18.48;;;7.90;84.30;;;;;;6340658;22;19999;-93
2022/12/21 01:09:53;;;;;;;27.00;17.38;;;7.90;84.40;;;;;;6340737;22;20418;-92
2022/12/21 01:12:19;;;;;;;26.75;18.65;;;7.90;84.40;;;;;;6312785;22;20010;-96
2022/12/21 01:14:45;;;;;;;26.10;18.05;;;8.00;84.30;;;;;;6339721;22;20003;-88
2022/12/21 01:17:10;;;;;;;25.48;17.05;;;7.90;84.20;;;;;;6339983;22;20052;-87
2022/12/21 01:19:36;;;;;;;30.75;18.58;;;7.90;84.20;;;;;;6312314;22;20003;-88
2022/12/21 01:22:02;;;;;;;29.42;19.25;;;7.90;84.30;;;;;;6339678;22;20017;-88
2022/12/21 01:24:27;;;;;;;27.67;18.08;;;7.90;84.50;;;;;;6340112;22;20026;-88
2022/12/21 01:26:53;;;;;;;29.08;19.05;;;7.90;84.30;;;;;;6339853;22;20052;-88
2022/12/21 01:29:19;;;;;;;26.85;16.38;;;7.90;84.20;;;;;;6339236;22;20075;-88
2022/12/21 01:31:45;;;;;;;29.33;16.60;;;7.80;84.40;;;;;;6340036;22;20428;-89
2022/12/21 01:34:10;;;;;;;28.38;17.83;;;7.80;84.50;;;;;;6339319;22;19995;-90
2022/12/21 01:36:36;;;;;;;29.20;18.65;;;7.80;84.60;;;;;;6340133;22;20002;-91
2022/12/21 01:39:02;;;;;;;30.08;17.80;;;7.80;84.70;;;;;;6338949;22;19998;-91
2022/12/21 01:41:28;;;;;;;26.63;17.15;;;7.80;84.80;;;;;;6339664;22;20007;-90
2022/12/21 01:44:01;;;;;;;27.65;18.20;;;7.90;84.80;;;;;;6339785;22;20451;-91
2022/12/21 01:46:46;;;;;;;28.63;18.17;;;7.90;84.50;;;;;;6339341;22;20006;-90
2022/12/21 01:49:12;;;;;;;29.60;18.25;;;7.90;84.40;;;;;;6339251;22;20029;-90
2022/12/21 01:51:40;;;;;;;38.22;20.27;;;7.90;84.40;;;;;;6339608;22;19998;-90
2022/12/21 01:54:17;;;;;;;26.48;17.80;;;7.90;84.20;;;;;;6339925;22;20033;-90
2022/12/21 01:56:47;;;;;;;26.65;17.17;;;7.90;84.30;;;;;;6310687;22;20003;-89
2022/12/21 01:59:22;;;;;;;29.15;19.05;;;7.90;84.30;;;;;;6339211;22;20002;-89
2022/12/21 02:01:48;;;;;;;30.77;19.67;;;7.90;84.20;;;;;;6339945;22;20037;-92
2022/12/21 02:04:14;;;;;;;27.17;18.08;;;7.80;83.70;;;;;;6339092;22;20002;-90
2022/12/21 02:06:56;;;;;;;26.25;18.42;;;7.80;84.00;;;;;;6339517;22;20002;-91
2022/12/21 02:09:24;;;;;;;26.42;17.60;;;7.80;84.20;;;;;;6339335;22;20006;-91
2022/12/21 02:11:52;;;;;;;28.30;18.60;;;7.80;84.20;;;;;;6339352;22;20030;-91
2022/12/21 02:14:18;;;;;;;28.88;18.25;;;7.80;84.30;;;;;;6339200;22;20077;-88
2022/12/21 02:17:04;;;;;;;29.52;18.88;;;7.80;84.30;;;;;;6338792;22;19999;-88
2022/12/21 02:19:51;;;;;;;27.85;19.13;;;7.90;84.40;;;;;;6311774;22;19999;-89
2022/12/21 02:22:39;;;;;;;28.98;19.55;;;7.80;84.40;;;;;;6338175;22;20011;-91
2022/12/21 02:25:34;;;;;;;26.70;18.15;;;7.90;84.40;;;;;;6339094;22;20045;-90
2022/12/21 02:28:20;;;;;;;26.10;17.65;;;7.80;84.30;;;;;;6287127;22;20331;-92
2022/12/21 02:31:22;;;;;;;25.48;17.60;;;7.90;84.30;;;;;;6339505;22;20003;-90
2022/12/21 02:34:09;;;;;;;29.48;17.77;;;7.90;84.40;;;;;;6338638;22;20371;-91
2022/12/21 02:36:47;;;;;;;30.60;17.65;;;7.90;84.50;;;;;;6338488;22;19999;-89
2022/12/21 02:39:54;;;;;;;29.48;18.73;;;7.90;84.40;;;;;;6338951;22;20030;-90
2022/12/21 02:45:29;;;;;;;25.95;17.15;;;7.90;84.30;;;;;;6339029;22;20014;-93
2022/12/21 02:48:13;;;;;;;31.40;18.55;;;7.90;84.30;;;;;;6339361;22;19999;-93
2022/12/21 02:50:41;;;;;;;26.92;17.83;;;7.90;84.30;;;;;;6339092;22;20006;-91
2022/12/21 02:53:13;;;;;;;26.67;18.02;;;7.90;84.40;;;;;;6338711;22;20026;-92
2022/12/21 02:55:39;;;;;;;28.40;19.02;;;7.90;84.50;;;;;;6338616;22;20003;-88
2022/12/21 02:58:14;;;;;;;28.10;19.17;;;7.90;84.40;;;;;;6338857;22;20413;-88
2022/12/21 03:00:51;;;;;;;29.58;19.42;;;7.90;84.50;;;;;;6338957;22;20048;-90
2022/12/21 03:03:50;;;;;;;28.55;18.85;;;7.90;84.60;;;;;;6310792;22;20325;-89
2022/12/21 03:06:22;;;;;;;29.63;19.95;;;7.90;85.20;;;;;;6338599;22;20306;-90
2022/12/21 03:09:02;;;;;;;28.73;18.67;;;7.90;84.80;;;;;;6338571;22;20363;-88
2022/12/21 03:11:48;;;;;;;29.58;19.48;;;7.90;84.90;;;;;;6338651;22;19999;-89
2022/12/21 03:14:42;;;;;;;27.05;18.90;;;7.90;85.10;;;;;;6338193;22;20007;-87
2022/12/21 03:17:36;;;;;;;32.38;19.55;;;7.90;85.30;;;;;;6337456;22;20056;-86
2022/12/21 03:20:17;;;;;;;29.55;19.33;;;7.80;85.50;;;;;;6338341;22;20406;-88
2022/12/21 03:23:22;;;;;;;31.35;19.63;;;7.90;85.70;;;;;;6337265;22;20084;-89
2022/12/21 03:25:55;;;;;;;30.33;18.65;;;7.90;85.80;;;;;;6312452;22;20082;-90
2022/12/21 03:28:26;;;;;;;30.38;19.80;;;7.80;85.80;;;;;;6338993;22;20003;-90
2022/12/21 03:30:55;;;;;;;28.58;18.08;;;7.90;85.50;;;;;;6338817;22;20011;-91
2022/12/21 03:33:24;;;;;;;28.00;19.17;;;7.90;86.00;;;;;;6337807;22;20053;-91
2022/12/21 03:35:54;;;;;;;24.80;17.63;;;7.90;85.40;;;;;;6338170;22;20047;-89
2022/12/21 03:38:31;;;;;;;28.08;17.67;;;7.90;85.60;;;;;;6338570;22;20003;-88
2022/12/21 03:41:00;;;;;;;35.65;18.50;;;7.90;85.00;;;;;;6338186;22;20029;-88
2022/12/21 03:43:32;;;;;;;25.85;17.27;;;7.90;84.90;;;;;;6338557;22;20343;-88
2022/12/21 03:46:05;;;;;;;29.98;18.60;;;7.90;85.30;;;;;;6336822;22;19995;-87
2022/12/21 03:48:37;;;;;;;25.45;17.33;;;7.90;85.40;;;;;;6337940;22;19999;-85
2022/12/21 03:51:13;;;;;;;22.52;16.45;;;7.90;85.00;;;;;;6337919;22;20393;-84
2022/12/21 03:53:49;;;;;;;25.63;17.17;;;7.90;84.90;;;;;;6337508;22;20057;-85
2022/12/21 03:56:30;;;;;;;27.17;17.85;;;7.90;84.40;;;;;;6337430;22;20003;-85
2022/12/21 03:58:57;;;;;;;26.25;17.98;;;7.80;84.60;;;;;;6338537;22;20006;-85
2022/12/21 04:01:58;;;;;;;29.05;17.42;;;7.90;84.70;;;;;;6337140;22;20002;-91
2022/12/21 04:04:33;;;;;;;32.72;18.45;;;7.90;84.60;;;;;;6332804;22;20087;-92
2022/12/21 04:07:02;;;;;;;27.90;18.60;;;7.90;84.60;;;;;;6336221;22;20738;-93
2022/12/21 04:09:27;;;;;;;29.13;18.50;;;7.90;84.40;;;;;;6337903;22;20005;-91
2022/12/21 04:14:39;;;;;;;26.48;18.52;;;7.80;84.50;;;;;;6338437;22;20094;-90
2022/12/21 04:17:04;;;;;;;26.80;18.65;;;7.80;84.60;;;;;;6338380;22;20060;-90
2022/12/21 04:28:06;;;;;;;30.00;19.20;;;7.90;84.80;;;;;;6338118;22;20026;-90
2022/12/21 04:30:28;;;;;;;25.95;16.52;;;7.60;84.80;;;;;;6337135;22;20029;-87
2022/12/21 04:32:54;;;;;;;26.55;17.58;;;7.60;84.90;;;;;;6338051;22;20401;-89
2022/12/21 04:35:19;;;;;;;35.22;18.50;;;7.60;84.90;;;;;;6338086;22;20010;-90
2022/12/21 04:37:45;;;;;;;26.98;17.85;;;7.70;84.90;;;;;;6337942;22;20006;-90
2022/12/21 04:40:11;;;;;;;26.15;18.38;;;7.70;84.80;;;;;;6338289;22;20026;-89
2022/12/21 04:42:38;;;;;;;29.25;18.80;;;7.80;84.60;;;;;;6336926;22;20045;-89
2022/12/21 04:45:05;;;;;;;30.13;18.40;;;7.80;84.40;;;;;;6338015;22;20073;-90
2022/12/21 04:47:30;;;;;;;25.63;17.08;;;7.70;83.80;;;;;;6337858;22;20074;-89
2022/12/21 04:49:56;;;;;;;26.95;17.45;;;7.70;84.10;;;;;;6338589;22;20049;-86
2022/12/21 04:52:22;;;;;;;25.40;17.23;;;7.70;84.20;;;;;;6338451;22;20011;-88
2022/12/21 04:54:48;;;;;;;32.17;18.63;;;7.70;84.40;;;;;;6338072;22;20299;-87
2022/12/21 04:57:13;;;;;;;27.60;18.52;;;7.80;84.60;;;;;;6309973;22;20354;-87
2022/12/21 04:59:39;;;;;;;29.17;18.48;;;7.80;84.60;;;;;;6337488;22;20358;-87
2022/12/21 05:02:05;;;;;;;27.08;17.95;;;7.80;84.70;;;;;;6337306;22;20003;-87
2022/12/21 05:04:30;;;;;;;25.73;18.05;;;7.80;84.70;;;;;;6337861;22;19999;-86
2022/12/21 05:06:56;;;;;;;28.77;18.65;;;7.80;84.70;;;;;;6338437;22;20003;-88
2022/12/21 05:09:22;;;;;;;29.15;19.50;;;7.90;84.70;;;;;;6338332;22;20421;-87
2022/12/21 05:11:48;;;;;;;29.48;19.38;;;7.90;84.60;;;;;;6337510;22;20029;-89
2022/12/21 05:14:14;;;;;;;29.45;18.23;;;7.90;84.60;;;;;;6337417;22;20428;-89
2022/12/21 05:16:40;;;;;;;25.60;18.00;;;7.90;84.60;;;;;;6338506;22;20344;-89
2022/12/21 05:19:05;;;;;;;30.77;19.42;;;7.80;84.70;;;;;;6337843;22;20306;-91
2022/12/21 05:21:31;;;;;;;28.88;18.25;;;7.80;84.70;;;;;;6337247;22;20082;-90
2022/12/21 05:23:57;;;;;;;27.90;18.67;;;7.80;84.80;;;;;;6338200;22;19999;-89
2022/12/21 05:26:23;;;;;;;28.98;18.73;;;7.80;84.90;;;;;;6338222;22;20052;-90
2022/12/21 05:28:49;;;;;;;28.58;20.05;;;7.80;84.90;;;;;;6338236;22;20002;-88
2022/12/21 05:31:16;;;;;;;27.45;18.60;;;7.80;84.90;;;;;;6336449;22;20013;-88
2022/12/21 05:33:41;;;;;;;28.67;18.45;;;7.90;84.90;;;;;;6339481;22;20027;-90
2022/12/21 05:36:10;;;;;;;32.55;20.50;;;7.90;85.00;;;;;;6339783;22;20026;-89
2022/12/21 05:38:36;;;;;;;29.92;19.33;;;7.90;85.10;;;;;;6339345;22;19999;-88
2022/12/21 05:41:03;;;;;;;32.13;21.35;;;7.80;84.90;;;;;;6339919;22;20010;-90
2022/12/21 05:43:29;;;;;;;30.30;21.48;;;7.80;85.30;;;;;;6339467;22;20074;-88
2022/12/21 05:46:09;;;;;;;29.25;19.52;;;7.70;84.90;;;;;;6339786;22;20003;-89
2022/12/21 05:48:36;;;;;;;30.75;19.83;;;7.80;85.50;;;;;;6339927;22;19998;-90
2022/12/21 05:51:09;;;;;;;30.48;20.17;;;7.80;85.60;;;;;;6338515;22;20010;-90
2022/12/21 05:53:37;;;;;;;32.95;20.45;;;7.80;85.80;;;;;;6339022;22;20070;-89
2022/12/21 05:56:03;;;;;;;31.05;20.85;;;7.80;85.90;;;;;;6338220;22;19999;-90
2022/12/21 05:58:28;;;;;;;32.05;21.35;;;7.70;85.90;;;;;;6340065;22;20306;-90
2022/12/21 06:00:54;;;;;;;30.85;20.23;;;7.80;86.30;;;;;;6312500;22;20068;-89
2022/12/21 06:03:21;;;;;;;32.17;21.77;;;7.70;86.40;;;;;;6339474;22;20043;-88
2022/12/21 06:05:46;;;;;;;30.08;21.90;;;7.80;86.60;;;;;;6339114;22;20002;-89
2022/12/21 06:08:12;;;;;;;31.58;20.80;;;7.80;86.70;;;;;;6339370;22;19995;-84
2022/12/21 06:10:38;;;;;;;29.95;20.45;;;7.80;86.70;;;;;;6338892;22;20007;-86
2022/12/21 06:13:05;;;;;;;30.30;20.67;;;7.80;86.80;;;;;;6312076;22;20333;-87
2022/12/21 06:15:31;;;;;;;33.17;21.55;;;7.90;86.90;;;;;;6339691;22;20003;-87
2022/12/21 06:17:57;;;;;;;30.05;20.55;;;7.90;87.00;;;;;;6337488;22;19999;-87
2022/12/21 06:20:23;;;;;;;32.75;21.67;;;7.90;87.00;;;;;;6334106;22;20038;-87
2022/12/21 06:25:24;;;;;;;30.15;19.90;;;7.80;86.70;;;;;;6366473;22;20019;-82
2022/12/21 06:27:51;;;;;;;32.78;21.90;;;7.80;87.60;;;;;;6369329;22;20037;-74
2022/12/21 06:35:57;;;;;;;30.83;22.10;;;7.90;87.80;;;;;;6369149;22;20090;-81
2022/12/21 06:38:27;;;;;;;32.67;21.40;;;7.90;88.10;;;;;;6368257;22;20002;-83
2022/12/21 06:40:56;;;;;;;37.83;21.83;;;7.90;88.80;;;;;;6368536;22;19998;-82
2022/12/21 06:44:06;;;;;;;29.98;19.85;;;7.90;88.50;;;;;;6368679;22;20067;-75
2022/12/21 06:46:35;;;;;;;28.58;19.40;;;7.90;88.40;;;;;;6341174;22;19999;-74
2022/12/21 06:49:01;;;;;;;32.13;21.67;;;7.90;88.50;;;;;;6369127;22;20090;-81
2022/12/21 06:51:30;;;;;;;33.67;21.33;;;7.80;88.50;;;;;;6369278;22;20022;-80
2022/12/21 06:53:57;;;;;;;31.25;22.40;;;7.80;88.50;;;;;;6342255;22;20034;-73
2022/12/21 06:56:26;;;;;;;30.73;21.40;;;7.80;88.30;;;;;;6341279;22;20011;-81
2022/12/21 06:58:54;;;;;;;29.33;20.88;;;7.80;88.30;;;;;;6338103;22;20086;-73
2022/12/21 07:01:25;;;;;;;30.45;21.00;;;7.80;88.20;;;;;;6336374;22;20005;-73
2022/12/21 07:03:51;;;;;;;31.95;19.77;;;7.80;88.10;;;;;;6338782;22;20005;-72
2022/12/21 07:06:18;;;;;;;30.45;20.80;;;7.90;88.00;;;;;;6335698;22;20064;-73
2022/12/21 07:08:44;;;;;;;27.38;19.05;;;7.90;87.70;;;;;;6336825;22;20009;-74
2022/12/21 07:11:13;;;;;;;29.92;19.88;;;7.90;87.40;;;;;;6335533;22;20074;-73
2022/12/21 07:13:41;;;;;;;28.67;19.38;;;7.90;87.10;;;;;;6337858;22;20006;-79
2022/12/21 07:16:08;;;;;;;32.17;20.67;;;7.90;86.90;;;;;;6309979;22;20420;-79
2022/12/21 07:18:34;;;;;;;31.77;20.30;;;7.80;86.80;;;;;;6337373;22;19998;-77
2022/12/21 07:21:05;;;;;;;35.97;21.60;;;7.80;86.80;;;;;;6337983;22;20007;-79
2022/12/21 07:23:32;;;;;;;34.45;20.75;;;7.90;86.90;;;;;;6336789;22;20084;-78
2022/12/21 07:25:58;;;;;;;31.38;20.73;;;7.90;86.90;;;;;;6336731;22;20002;-79
2022/12/21 07:28:24;;;;;;;29.90;20.52;;;7.90;87.00;;;;;;6335802;22;20336;-77
2022/12/21 07:30:51;;;;;;;27.83;20.08;;;7.90;86.80;;;;;;6336854;22;19999;-73
2022/12/21 07:33:18;;;;;;;28.20;19.98;;;7.90;86.60;;;;;;6336492;22;20068;-73
2022/12/21 07:35:45;;;;;;;37.47;22.00;;;8.00;86.60;;;;;;6336990;22;20030;-82
2022/12/21 07:38:11;;;;;;;30.23;20.33;;;8.00;86.20;;;;;;6305124;22;20370;-82
2022/12/21 07:40:37;;;;;;;31.00;20.35;;;8.00;86.30;;;;;;6336683;22;20128;-73
2022/12/21 07:43:10;;;;;;;28.70;18.85;;;8.00;86.30;;;;;;6332369;22;19998;-77
2022/12/21 07:45:39;;;;;;;27.73;18.42;;;8.00;86.20;;;;;;6336450;22;20032;-74
2022/12/21 07:48:18;;;;;;;28.95;19.40;;;8.00;86.10;;;;;;6334542;22;19999;-74
2022/12/21 07:50:46;;;;;;;30.63;19.05;;;8.10;85.90;;;;;;6334627;22;20007;-72
2022/12/21 07:53:12;;;;;;;32.35;18.85;;;8.10;85.80;;;;;;6336365;22;20003;-73
2022/12/21 07:55:38;;;;;;;27.85;19.00;;;8.10;85.70;;;;;;6336362;22;20309;-72
2022/12/21 07:58:04;;;;;;;29.20;17.88;;;8.10;85.50;;;;;;6307343;22;20090;-76
2022/12/21 08:00:29;;;;;;;27.30;19.13;;;8.20;85.40;;;;;;6337390;22;20006;-79
2022/12/21 08:02:55;;;;;;;29.73;18.50;;;8.10;85.20;;;;;;6337904;22;19995;-79
2022/12/21 08:05:21;;;;;;;26.42;18.60;;;8.10;85.20;;;;;;6337663;22;19999;-71
2022/12/21 08:07:47;;;;;;;32.67;20.83;;;8.10;85.10;;;;;;6338106;22;20048;-71
2022/12/21 08:10:14;;;;;;;27.60;19.23;;;8.10;85.20;;;;;;6337337;22;20357;-73
2022/12/21 08:12:39;;;;;;;26.23;18.95;;;8.10;85.40;;;;;;6336156;22;20014;-72
2022/12/21 08:15:06;;;;;;;32.00;19.00;;;8.10;85.40;;;;;;6337238;22;19999;-73
2022/12/21 08:17:31;;;;;;;31.50;19.15;;;8.10;85.40;;;;;;6336468;22;20002;-72
2022/12/21 08:19:57;;;;;;;26.70;18.50;;;8.20;85.50;;;;;;6337394;22;20003;-83
2022/12/21 08:22:24;;;;;;;33.85;19.98;;;8.20;85.50;;;;;;6336590;22;20034;-73
2022/12/21 08:24:51;;;;;;;32.58;20.45;;;8.20;85.60;;;;;;6335796;22;20020;-72
2022/12/21 08:27:17;;;;;;;35.38;20.38;;;8.20;85.30;;;;;;6310360;22;20411;-78
2022/12/21 08:29:43;;;;;;;31.80;19.50;;;8.20;85.40;;;;;;6337052;22;20002;-80
2022/12/21 08:32:09;;;;;;;33.33;19.60;;;8.20;85.40;;;;;;6337189;22;20364;-79
2022/12/21 08:34:34;;;;;;;27.48;19.08;;;8.20;85.20;;;;;;6337805;22;19995;-79
2022/12/21 08:37:00;;;;;;;31.38;19.60;;;8.20;85.20;;;;;;6337628;22;20005;-78
2022/12/21 08:39:27;;;;;;;30.58;19.17;;;8.20;85.40;;;;;;6337413;22;20030;-79
2022/12/21 08:41:52;;;;;;;31.85;19.20;;;8.20;85.20;;;;;;6337451;22;19995;-72
2022/12/21 08:44:18;;;;;;;26.98;18.48;;;8.20;85.60;;;;;;6338072;22;20002;-72
2022/12/21 08:46:44;;;;;;;27.00;18.00;;;8.20;85.10;;;;;;6338177;22;19999;-72
2022/12/21 08:49:10;;;;;;;29.10;19.00;;;8.20;84.90;;;;;;6338538;22;19994;-72
2022/12/21 08:51:37;;;;;;;32.92;20.10;;;8.20;84.80;;;;;;6337344;22;19999;-72
2022/12/21 08:54:06;;;;;;;29.58;21.00;;;8.30;84.80;;;;;;6310226;22;20416;-73
2022/12/21 08:56:33;;;;;;;29.50;19.90;;;8.30;84.70;;;;;;6338096;22;20011;-72
2022/12/21 08:59:01;;;;;;;27.73;18.77;;;8.20;84.60;;;;;;6338068;22;20038;-72
2022/12/21 09:01:27;;;;;;;29.33;20.08;;;8.30;84.80;;;;;;6338234;22;20010;-72
2022/12/21 09:03:52;;;;;;;28.92;19.33;;;8.30;84.90;;;;;;6310618;22;20003;-73
2022/12/21 09:06:18;;;;;;;25.88;18.20;;;8.30;84.70;;;;;;6338055;22;20003;-73
2022/12/21 09:08:45;;;;;;;30.35;20.02;;;8.30;84.80;;;;;;6340054;22;20319;-72
2022/12/21 09:11:13;;;;;;;29.05;21.40;;;8.30;84.90;;;;;;6340247;22;20500;-72
2022/12/21 09:13:39;;;;;;;29.33;20.33;;;8.30;85.40;;;;;;6340433;22;20003;-72
2022/12/21 09:16:17;;;;;;;28.50;19.35;;;8.30;84.90;;;;;;6339836;22;20443;-73
2022/12/21 09:18:44;;;;;;;30.83;20.02;;;8.30;84.90;;;;;;6339863;22;20011;-72
2022/12/21 09:21:11;;;;;;;27.75;19.17;;;8.30;84.90;;;;;;6339914;22;20017;-72
2022/12/21 09:23:37;;;;;;;26.95;18.30;;;8.30;84.80;;;;;;6340177;22;20048;-72
2022/12/21 09:26:07;;;;;;;35.20;20.23;;;8.30;85.10;;;;;;6339931;22;19999;-72
2022/12/21 09:28:33;;;;;;;29.95;20.75;;;8.30;85.10;;;;;;6339673;22;19995;-72
2022/12/21 09:31:17;;;;;;;31.38;20.63;;;8.40;85.10;;;;;;6340343;22;20045;-72
2022/12/21 09:33:43;;;;;;;30.88;19.52;;;8.50;84.90;;;;;;6340015;22;20006;-72
2022/12/21 09:36:11;;;;;;;30.42;20.20;;;8.50;84.70;;;;;;6339990;22;20006;-72
2022/12/21 09:38:37;;;;;;;30.42;19.55;;;8.50;84.80;;;;;;6339421;22;20075;-72
2022/12/21 09:41:18;;;;;;;29.63;19.75;;;8.50;84.80;;;;;;6339546;22;20002;-72
2022/12/21 09:44:21;;;;;;;29.77;20.55;;;8.40;84.90;;;;;;6339690;22;19999;-73
2022/12/21 09:46:51;;;;;;;31.50;20.88;;;8.40;85.10;;;;;;6339728;22;20010;-73
2022/12/21 09:49:34;;;;;;;30.17;19.67;;;8.50;85.10;;;;;;6312097;22;20428;-74
2022/12/21 09:52:03;;;;;;;32.75;20.15;;;8.40;85.20;;;;;;6339037;22;20006;-79
2022/12/21 09:54:47;;;;;;;32.20;21.80;;;8.40;85.20;;;;;;6339590;22;20011;-79
2022/12/21 09:57:13;;;;;;;28.67;20.45;;;8.40;85.40;;;;;;6339588;22;20433;-79
2022/12/21 09:59:40;;;;;;;31.05;20.88;;;8.40;85.50;;;;;;6339361;22;20048;-80
2022/12/21 10:02:23;;;;;;;30.33;19.58;;;8.40;85.30;;;;;;6339442;22;20003;-79
2022/12/21 10:05:26;;;;;;;33.58;21.25;;;8.40;85.30;;;;;;6339576;22;20033;-79
2022/12/21 10:08:08;;;;;;;34.95;22.27;;;8.50;85.30;;;;;;6339698;22;20057;-79
2022/12/21 10:10:42;;;;;;;28.60;19.23;;;8.50;85.20;;;;;;6339179;22;20002;-79
2022/12/21 10:13:23;;;;;;;32.30;22.27;;;8.50;85.00;;;;;;6339227;22;20497;-79
2022/12/21 10:15:52;;;;;;;33.33;21.50;;;8.50;85.10;;;;;;6339420;22;20003;-79
2022/12/21 10:18:21;;;;;;;41.90;21.88;;;8.50;84.90;;;;;;6339348;22;20059;-79
2022/12/21 10:20:49;;;;;;;33.28;20.90;;;8.60;85.20;;;;;;6338344;22;20010;-81
2022/12/21 10:23:29;;;;;;;37.00;22.67;;;8.60;85.30;;;;;;6339342;22;20006;-81
2022/12/21 10:25:57;;;;;;;30.95;21.20;;;8.60;85.50;;;;;;6339343;22;19995;-82
2022/12/21 10:28:40;;;;;;;32.65;21.90;;;8.60;85.50;;;;;;6339767;22;20021;-82
2022/12/21 10:31:14;;;;;;;32.67;22.00;;;8.60;85.40;;;;;;6339105;22;19999;-81
2022/12/21 10:33:42;;;;;;;29.63;20.40;;;8.60;85.40;;;;;;6311610;22;20002;-82
2022/12/21 10:36:17;;;;;;;36.92;23.27;;;8.70;85.60;;;;;;6339449;22;20030;-80
2022/12/21 10:38:44;;;;;;;38.15;22.48;;;8.70;85.90;;;;;;6339118;22;19999;-80
2022/12/21 10:41:22;;;;;;;34.13;22.48;;;8.80;85.60;;;;;;6339445;22;19999;-82
2022/12/21 10:43:49;;;;;;;31.30;20.52;;;8.80;85.70;;;;;;6339295;22;19995;-80
2022/12/21 10:46:18;;;;;;;33.55;21.15;;;8.80;85.60;;;;;;6339257;22;19999;-79
2022/12/21 10:48:45;;;;;;;30.90;21.25;;;8.90;85.30;;;;;;6309720;22;20284;-78
2022/12/21 10:51:28;;;;;;;33.00;21.73;;;8.90;85.00;;;;;;6339258;22;19999;-78
2022/12/21 10:54:00;;;;;;;34.17;21.85;;;8.80;84.90;;;;;;6339277;22;20014;-78
2022/12/21 10:56:28;;;;;;;32.10;21.38;;;8.80;85.00;;;;;;6339515;22;20081;-78
2022/12/21 10:58:55;;;;;;;31.80;22.38;;;8.80;85.00;;;;;;6339302;22;20010;-78
2022/12/21 11:01:26;;;;;;;32.38;22.10;;;8.80;85.10;;;;;;6339178;22;20079;-77
2022/12/21 11:04:16;;;;;;;29.38;20.00;;;8.90;85.00;;;;;;6338816;22;19995;-77
2022/12/21 11:06:57;;;;;;;;;;;8.90;84.90;;;;;;6339605;22;20002;-77
2022/12/21 11:09:37;;;;;;;30.23;20.20;;;8.90;84.80;;;;;;6338861;22;19899;-77
2022/12/21 11:12:12;;;;;;;32.08;22.08;;;8.90;84.80;;;;;;6339179;22;20022;-77
2022/12/21 11:14:38;;;;;;;32.63;20.92;;;9.00;84.90;;;;;;6338812;22;20067;-77
2022/12/21 11:17:04;;;;;;;34.13;21.88;;;9.00;85.00;;;;;;6310698;22;20003;-77
2022/12/21 11:19:34;;;;;;;37.80;23.58;;;9.00;85.10;;;;;;6337714;22;20351;-77
2022/12/21 11:22:00;;;;;;;34.53;22.70;;;9.00;85.00;;;;;;6336711;22;20401;-78
2022/12/21 11:24:34;;;;;;;35.13;22.17;;;9.10;85.00;;;;;;6338552;22;19995;-78
2022/12/21 11:27:02;;;;;;;30.30;21.30;;;9.10;84.90;;;;;;6338532;22;20021;-77
2022/12/21 11:29:31;;;;;;;33.67;22.05;;;9.10;84.90;;;;;;6338206;22;19999;-78
2022/12/21 11:32:06;;;;;;;27.98;19.38;;;9.20;84.90;;;;;;6337936;22;20375;-77
2022/12/21 11:34:36;;;;;;;30.88;20.40;;;9.20;84.80;;;;;;6310325;22;20451;-78
2022/12/21 11:37:22;;;;;;;31.42;20.52;;;9.20;84.70;;;;;;6338156;22;20002;-77
2022/12/21 11:39:55;;;;;;;32.42;19.95;;;9.20;84.60;;;;;;6338090;22;20320;-78
2022/12/21 11:42:22;;;;;;;29.65;20.23;;;9.30;84.70;;;;;;6338595;22;20078;-78
2022/12/21 11:45:06;;;;;;;30.65;21.70;;;9.30;84.60;;;;;;6337394;22;20005;-77
2022/12/21 11:48:06;;;;;;;33.33;21.52;;;9.30;84.40;;;;;;6337765;22;19998;-77
2022/12/21 11:50:41;;;;;;;29.67;21.08;;;9.20;84.20;;;;;;6331097;22;20518;-78
2022/12/21 11:53:07;;;;;;;31.80;21.17;;;9.20;84.40;;;;;;6338103;22;20089;-78
2022/12/21 11:55:47;;;;;;;31.55;20.98;;;9.20;84.60;;;;;;6337749;22;20042;-78
2022/12/21 11:58:30;;;;;;;33.78;20.42;;;9.20;84.80;;;;;;6338117;22;20425;-77
2022/12/21 12:01:10;;;;;;;31.67;21.33;;;9.30;84.50;;;;;;6337313;22;20011;-78
2022/12/21 12:04:11;;;;;;;30.88;21.45;;;9.20;84.60;;;;;;6337521;22;19995;-77
2022/12/21 12:07:26;;;;;;;31.98;21.48;;;9.20;84.80;;;;;;6337112;22;20433;-77
2022/12/21 12:09:54;;;;;;;34.45;22.35;;;9.30;84.90;;;;;;6309288;22;20002;-77
2022/12/21 12:12:22;;;;;;;36.03;23.17;;;9.30;84.90;;;;;;6337388;22;19999;-78
2022/12/21 12:14:59;;;;;;;31.52;20.63;;;9.30;84.80;;;;;;6337312;22;20297;-77
2022/12/21 12:17:35;;;;;;;29.17;20.70;;;9.30;84.70;;;;;;6337526;22;20003;-77
2022/12/21 12:20:07;;;;;;;31.75;20.77;;;9.30;84.80;;;;;;6337347;22;20343;-77
2022/12/21 12:22:32;;;;;;;30.70;20.90;;;9.30;84.40;;;;;;6338177;22;20030;-77
2022/12/21 12:25:07;;;;;;;28.33;19.05;;;9.30;84.50;;;;;;6337485;22;19999;-76
2022/12/21 12:28:09;;;;;;;30.90;20.05;;;9.30;84.60;;;;;;6337815;22;19998;-77
2022/12/21 12:31:13;;;;;;;32.65;22.08;;;9.30;84.60;;;;;;6337018;22;20006;-77
2022/12/21 12:33:53;;;;;;;30.95;20.85;;;9.40;84.40;;;;;;6337458;22;20010;-77
2022/12/21 12:36:34;;;;;;;31.05;20.02;;;9.30;84.40;;;;;;6337829;22;20003;-76
2022/12/21 12:39:02;;;;;;;;;;;9.30;84.50;;;;;;6337378;22;20439;-76
2022/12/21 12:41:54;;;;;;;34.38;21.13;;;9.30;84.30;;;;;;6337475;22;19902;-77
2022/12/21 12:44:36;;;;;;;30.10;21.15;;;9.30;84.40;;;;;;6312052;22;20009;-77
2022/12/21 12:47:31;;;;;;;34.42;21.55;;;9.30;84.50;;;;;;6311139;22;20011;-77
2022/12/21 12:50:17;;;;;;;30.90;20.10;;;9.30;84.60;;;;;;6309043;22;20018;-77
2022/12/21 12:52:58;;;;;;;31.58;20.52;;;9.20;84.50;;;;;;6336793;22;20003;-77
2022/12/21 12:55:42;;;;;;;33.05;21.92;;;9.20;84.70;;;;;;6336703;22;20014;-76
2022/12/21 12:58:29;;;;;;;30.30;20.48;;;9.30;85.00;;;;;;6335063;22;20070;-76
2022/12/21 13:01:15;;;;;;;31.00;19.73;;;9.30;84.70;;;;;;6272059;22;20460;-77
2022/12/21 13:03:53;;;;;;;34.80;22.30;;;9.30;84.60;;;;;;6335529;22;20013;-76
2022/12/21 13:06:33;;;;;;;30.95;20.90;;;9.30;84.70;;;;;;6334111;22;20006;-78
2022/12/21 13:09:06;;;;;;;31.58;22.13;;;9.30;84.90;;;;;;6323639;22;20064;-76
2022/12/21 13:11:49;;;;;;;31.38;20.98;;;9.30;85.00;;;;;;6327719;22;20002;-77
2022/12/21 13:14:30;;;;;;;30.20;21.10;;;9.30;84.70;;;;;;6329687;22;20937;-77
2022/12/21 13:17:08;;;;;;;32.78;21.85;;;9.30;84.80;;;;;;6332205;22;20002;-77
2022/12/21 13:19:36;;;;;;;32.25;20.98;;;9.30;85.00;;;;;;6329411;22;20033;-77
2022/12/21 13:22:05;;;;;;;34.53;22.27;;;9.30;85.00;;;;;;6327012;22;20437;-76
2022/12/21 13:24:58;;;;;;;34.45;23.73;;;9.40;85.20;;;;;;6329822;22;19998;-71